Time;durP1;ratioP1;P1;durP2;ratioP2;P2;SDS_P1;SDS_P2;PMS_P1;PMS_P2;Temp;Humidity;BMP_temperature;BMP_pressure;BME280_temperature;BME280_humidity;BME280_pressure;Samples;Min_cycle;Max_cycle;Signal;HPM_P1;HPM_P2
2022/03/02 00:01:41;;;;;;;52.63;25.92;;;5.00;99.90;;;;;;5013436;28;20034;-67
2022/03/02 00:04:07;;;;;;;53.28;24.35;;;5.10;99.90;;;;;;5000594;28;20120;-64
2022/03/02 00:06:32;;;;;;;54.05;24.83;;;5.00;99.90;;;;;;4994031;28;20688;-64
2022/03/02 00:08:58;;;;;;;51.92;25.35;;;5.00;99.90;;;;;;4994181;28;21826;-64
2022/03/02 00:11:24;;;;;;;52.20;24.02;;;4.90;99.90;;;;;;4993251;28;20649;-64
2022/03/02 00:13:50;;;;;;;53.65;24.98;;;4.90;99.90;;;;;;4992446;28;20038;-63
2022/03/02 00:16:17;;;;;;;53.58;26.35;;;4.90;99.90;;;;;;4997500;28;20514;-64
2022/03/02 00:18:44;;;;;;;54.80;24.80;;;4.90;99.90;;;;;;5003171;28;20041;-64
2022/03/02 00:21:10;;;;;;;55.72;26.38;;;4.80;99.90;;;;;;4993586;28;20054;-63
2022/03/02 00:23:35;;;;;;;57.53;26.80;;;4.90;99.90;;;;;;4993383;28;20052;-65
2022/03/02 00:26:01;;;;;;;50.38;25.02;;;4.90;99.90;;;;;;4991885;28;20499;-65
2022/03/02 00:28:27;;;;;;;54.15;25.58;;;4.90;99.90;;;;;;4992081;28;20042;-64
2022/03/02 00:30:53;;;;;;;53.70;25.98;;;4.90;99.90;;;;;;5019427;28;20030;-64
2022/03/02 00:33:19;;;;;;;50.40;26.00;;;5.00;99.90;;;;;;5011742;28;20045;-65
2022/03/02 00:35:44;;;;;;;58.30;25.20;;;5.00;99.90;;;;;;4994241;28;20601;-64
2022/03/02 00:38:11;;;;;;;52.17;26.13;;;5.00;99.90;;;;;;4992350;28;20477;-64
2022/03/02 00:40:41;;;;;;;70.63;37.35;;;5.00;99.90;;;;;;4994139;28;20139;-63
2022/03/02 00:43:08;;;;;;;65.03;34.80;;;5.00;99.90;;;;;;4992495;28;20038;-63
2022/03/02 00:45:34;;;;;;;60.42;30.80;;;5.00;99.90;;;;;;4992062;28;20396;-64
2022/03/02 00:48:00;;;;;;;64.35;31.88;;;5.00;99.90;;;;;;5002657;28;20037;-63
2022/03/02 00:50:26;;;;;;;59.35;27.58;;;5.00;99.90;;;;;;4992983;28;20056;-64
2022/03/02 00:52:52;;;;;;;54.38;27.00;;;4.90;99.90;;;;;;4997686;28;20034;-64
2022/03/02 00:55:18;;;;;;;56.28;27.92;;;4.90;99.90;;;;;;4991503;28;20057;-64
2022/03/02 00:57:44;;;;;;;58.92;26.40;;;4.90;99.90;;;;;;4991713;28;20047;-64
2022/03/02 01:00:11;;;;;;;53.92;26.13;;;4.90;99.90;;;;;;4991897;28;20034;-65
2022/03/02 01:02:37;;;;;;;57.95;27.65;;;4.90;99.90;;;;;;5004955;28;20022;-64
2022/03/02 01:05:04;;;;;;;55.35;27.38;;;4.90;99.90;;;;;;4991700;28;20026;-64
2022/03/02 01:07:30;;;;;;;60.22;27.58;;;5.00;99.90;;;;;;4991198;28;20029;-64
2022/03/02 01:09:56;;;;;;;53.03;25.65;;;5.00;99.90;;;;;;5005429;28;20545;-65
2022/03/02 01:12:22;;;;;;;52.72;26.17;;;4.90;99.90;;;;;;5017098;28;20117;-64
2022/03/02 01:14:47;;;;;;;55.63;26.90;;;4.90;99.90;;;;;;4992021;28;20029;-65
2022/03/02 01:17:13;;;;;;;59.50;27.65;;;4.90;99.90;;;;;;4992203;28;20049;-65
2022/03/02 01:19:39;;;;;;;56.97;27.10;;;5.00;99.90;;;;;;4991810;28;20401;-65
2022/03/02 01:22:06;;;;;;;52.78;26.35;;;5.00;99.90;;;;;;4992703;28;20026;-64
2022/03/02 01:24:31;;;;;;;57.75;27.45;;;4.90;99.90;;;;;;4999152;28;20515;-64
2022/03/02 01:26:57;;;;;;;55.58;26.20;;;5.00;99.90;;;;;;4992474;28;20042;-64
2022/03/02 01:29:23;;;;;;;58.33;26.75;;;5.00;99.90;;;;;;5007019;28;20037;-64
2022/03/02 01:31:49;;;;;;;53.83;26.60;;;4.90;99.90;;;;;;5012365;28;20147;-64
2022/03/02 01:34:14;;;;;;;57.30;26.52;;;4.90;99.90;;;;;;5020648;28;20485;-64
2022/03/02 01:36:40;;;;;;;50.85;25.40;;;4.90;99.90;;;;;;5020909;28;20056;-64
2022/03/02 01:39:06;;;;;;;55.63;27.00;;;4.90;99.90;;;;;;5016941;28;20028;-64
2022/03/02 01:41:32;;;;;;;55.28;26.95;;;4.90;99.90;;;;;;5018769;28;20025;-65
2022/03/02 01:43:57;;;;;;;55.90;27.10;;;4.80;99.90;;;;;;5018510;28;20072;-65
2022/03/02 01:46:23;;;;;;;52.67;26.15;;;4.80;99.90;;;;;;5021291;28;20037;-67
2022/03/02 01:48:50;;;;;;;55.75;26.55;;;4.80;99.90;;;;;;5018652;28;20048;-65
2022/03/02 01:51:16;;;;;;;52.78;27.15;;;4.80;99.90;;;;;;5021752;28;20510;-64
2022/03/02 01:53:42;;;;;;;54.67;26.90;;;4.80;99.90;;;;;;5021164;28;20030;-64
2022/03/02 01:56:08;;;;;;;55.08;26.52;;;4.70;99.90;;;;;;5013899;28;20041;-65
2022/03/02 01:58:34;;;;;;;56.40;25.60;;;4.70;99.90;;;;;;5019067;28;20124;-64
2022/03/02 02:01:00;;;;;;;50.22;25.52;;;4.70;99.90;;;;;;5020276;28;20163;-64
2022/03/02 02:03:27;;;;;;;48.33;25.00;;;4.70;99.90;;;;;;5021668;28;20030;-65
2022/03/02 02:05:53;;;;;;;52.58;25.55;;;4.70;99.90;;;;;;5016607;28;20022;-65
2022/03/02 02:08:18;;;;;;;52.50;25.42;;;4.70;99.90;;;;;;5022619;28;20031;-66
2022/03/02 02:10:44;;;;;;;57.20;27.52;;;4.70;99.90;;;;;;5015585;28;20053;-65
2022/03/02 02:13:10;;;;;;;51.03;25.98;;;4.70;99.90;;;;;;5017905;28;20034;-65
2022/03/02 02:15:36;;;;;;;48.80;25.80;;;4.70;99.90;;;;;;5015345;28;20448;-65
2022/03/02 02:18:03;;;;;;;46.28;25.17;;;4.70;99.90;;;;;;5011530;28;20026;-66
2022/03/02 02:20:32;;;;;;;48.20;24.80;;;4.70;99.90;;;;;;5020054;28;20025;-64
2022/03/02 02:22:58;;;;;;;51.67;25.10;;;4.70;99.90;;;;;;5018128;28;20049;-66
2022/03/02 02:25:23;;;;;;;48.38;24.08;;;4.70;99.90;;;;;;5020667;28;20026;-66
2022/03/02 02:27:49;;;;;;;47.80;24.15;;;4.70;99.90;;;;;;5017731;28;20091;-65
2022/03/02 02:30:16;;;;;;;48.80;25.83;;;4.70;99.90;;;;;;5030392;28;20113;-66
2022/03/02 02:32:42;;;;;;;50.47;25.75;;;4.70;99.90;;;;;;5017621;28;20034;-66
2022/03/02 02:35:09;;;;;;;51.20;25.20;;;4.70;99.90;;;;;;5012285;28;20124;-66
2022/03/02 02:37:37;;;;;;;52.80;25.67;;;4.70;99.90;;;;;;5014834;28;20034;-65
2022/03/02 02:40:11;;;;;;;50.65;24.85;;;4.70;99.90;;;;;;5012504;28;20415;-65
2022/03/02 02:42:37;;;;;;;52.42;25.63;;;4.60;99.90;;;;;;5020079;28;20033;-65
2022/03/02 02:45:04;;;;;;;49.90;25.58;;;4.60;99.90;;;;;;5016417;28;20026;-66
2022/03/02 02:47:30;;;;;;;51.45;25.30;;;4.60;99.90;;;;;;5016547;28;20120;-65
2022/03/02 02:49:56;;;;;;;52.08;25.33;;;4.60;99.90;;;;;;5012010;28;20531;-65
2022/03/02 02:52:21;;;;;;;53.45;25.42;;;4.60;99.90;;;;;;5020967;28;20068;-65
2022/03/02 02:54:50;;;;;;;47.85;23.98;;;4.60;99.90;;;;;;5012682;28;20120;-66
2022/03/02 02:57:16;;;;;;;52.28;24.90;;;4.60;99.90;;;;;;5019759;28;20111;-66
2022/03/02 02:59:42;;;;;;;50.35;24.42;;;4.60;99.90;;;;;;5012127;28;20466;-66
2022/03/02 03:02:08;;;;;;;50.90;24.45;;;4.60;99.90;;;;;;5017415;28;20057;-66
2022/03/02 03:04:33;;;;;;;47.38;23.83;;;4.60;99.90;;;;;;5017017;28;20057;-65
2022/03/02 03:06:59;;;;;;;51.88;25.00;;;4.60;99.90;;;;;;5020078;28;20030;-65
2022/03/02 03:09:25;;;;;;;45.55;24.27;;;4.60;99.90;;;;;;5015500;28;20038;-66
2022/03/02 03:11:51;;;;;;;53.50;25.35;;;4.50;99.90;;;;;;5017209;28;20132;-66
2022/03/02 03:14:16;;;;;;;50.40;24.52;;;4.50;99.90;;;;;;5008607;28;20037;-63
2022/03/02 03:16:43;;;;;;;49.63;25.13;;;4.50;99.90;;;;;;5018753;28;20022;-64
2022/03/02 03:19:09;;;;;;;50.15;24.70;;;4.50;99.90;;;;;;5008902;28;20464;-63
2022/03/02 03:21:35;;;;;;;53.70;25.98;;;4.50;99.90;;;;;;5016371;28;20389;-65
2022/03/02 03:24:02;;;;;;;55.05;26.65;;;4.50;99.90;;;;;;5021159;28;20036;-65
2022/03/02 03:26:27;;;;;;;52.63;25.95;;;4.40;99.90;;;;;;5023616;28;20038;-63
2022/03/02 03:28:53;;;;;;;50.25;25.70;;;4.40;99.90;;;;;;5016964;28;20036;-66
2022/03/02 03:31:19;;;;;;;51.90;25.13;;;4.40;99.90;;;;;;5009686;28;20034;-63
2022/03/02 03:33:45;;;;;;;54.17;25.50;;;4.40;99.90;;;;;;5016466;28;20072;-63
2022/03/02 03:36:11;;;;;;;47.85;23.75;;;4.40;99.90;;;;;;5016075;28;20029;-63
2022/03/02 03:38:36;;;;;;;54.97;25.50;;;4.30;99.90;;;;;;5016695;28;20026;-62
2022/03/02 03:41:02;;;;;;;50.22;24.42;;;4.30;99.90;;;;;;5003118;28;20164;-63
2022/03/02 03:43:28;;;;;;;51.58;25.42;;;4.30;99.90;;;;;;5017327;28;20125;-64
2022/03/02 03:45:53;;;;;;;48.53;24.27;;;4.30;99.90;;;;;;5011535;28;20037;-64
2022/03/02 03:48:19;;;;;;;54.05;25.95;;;4.30;99.90;;;;;;5008095;28;20466;-63
2022/03/02 03:50:45;;;;;;;50.35;25.60;;;4.30;99.90;;;;;;5018871;28;20076;-65
2022/03/02 03:53:12;;;;;;;52.28;25.70;;;4.30;99.90;;;;;;5022316;28;20065;-64
2022/03/02 03:55:40;;;;;;;50.55;25.50;;;4.30;99.90;;;;;;5017021;28;20112;-63
2022/03/02 03:58:06;;;;;;;49.47;24.38;;;4.20;99.90;;;;;;5019760;28;20029;-63
2022/03/02 04:00:32;;;;;;;48.72;22.85;;;4.20;99.90;;;;;;5012282;28;20026;-63
2022/03/02 04:02:58;;;;;;;46.15;22.85;;;4.10;99.90;;;;;;5020455;28;20032;-63
2022/03/02 04:05:24;;;;;;;44.63;23.48;;;4.20;99.90;;;;;;5015926;28;21431;-63
2022/03/02 04:07:49;;;;;;;56.60;23.65;;;4.20;99.90;;;;;;5016551;28;20082;-65
2022/03/02 04:10:17;;;;;;;51.55;23.38;;;4.20;99.90;;;;;;5009637;28;20045;-65
2022/03/02 04:12:43;;;;;;;47.20;22.55;;;4.20;99.90;;;;;;5020429;28;20022;-64
2022/03/02 04:15:10;;;;;;;52.65;23.77;;;4.20;99.90;;;;;;5024444;28;20527;-65
2022/03/02 04:17:35;;;;;;;50.35;22.30;;;4.10;99.90;;;;;;5021360;28;20038;-64
2022/03/02 04:20:02;;;;;;;44.58;21.75;;;4.10;99.90;;;;;;5023189;28;20371;-65
2022/03/02 04:22:28;;;;;;;44.58;21.70;;;4.10;99.90;;;;;;5023295;28;20130;-64
2022/03/02 04:24:53;;;;;;;41.80;21.13;;;4.10;99.90;;;;;;5018784;28;20585;-64
2022/03/02 04:27:19;;;;;;;40.65;21.17;;;4.10;99.90;;;;;;5019649;28;20034;-65
2022/03/02 04:29:45;;;;;;;44.10;22.23;;;4.10;99.90;;;;;;5019514;28;20034;-65
2022/03/02 04:32:10;;;;;;;45.40;22.63;;;4.00;99.90;;;;;;5017627;28;20092;-63
2022/03/02 04:34:36;;;;;;;44.05;23.77;;;4.10;99.90;;;;;;5023219;28;20029;-65
2022/03/02 04:37:02;;;;;;;51.90;21.90;;;4.10;99.90;;;;;;5019537;28;20022;-64
2022/03/02 04:39:27;;;;;;;48.78;22.90;;;4.10;99.90;;;;;;5019000;28;20031;-65
2022/03/02 04:41:53;;;;;;;50.67;24.05;;;4.10;99.90;;;;;;5025432;28;20042;-65
2022/03/02 04:44:18;;;;;;;44.20;22.55;;;4.00;99.90;;;;;;5015912;28;20030;-63
2022/03/02 04:46:48;;;;;;;49.10;23.48;;;4.00;99.90;;;;;;5021648;28;20033;-62
2022/03/02 04:49:17;;;;;;;44.58;22.48;;;4.00;99.90;;;;;;5015360;28;20412;-63
2022/03/02 04:51:45;;;;;;;42.08;21.70;;;4.00;99.90;;;;;;5017574;28;20026;-63
2022/03/02 04:55:05;;;;;;;50.58;22.40;;;3.90;99.90;;;;;;5023854;28;20033;-64
2022/03/02 04:56:57;;;;;;;45.25;21.13;;;3.90;99.90;;;;;;5018708;28;20033;-63
2022/03/02 04:59:22;;;;;;;46.15;22.45;;;3.90;99.90;;;;;;5019320;28;20117;-63
2022/03/02 05:01:48;;;;;;;52.65;23.73;;;3.80;99.90;;;;;;5014388;28;20030;-64
2022/03/02 05:04:13;;;;;;;48.72;22.98;;;3.80;99.90;;;;;;5005871;28;20029;-63
2022/03/02 05:06:39;;;;;;;50.05;23.58;;;3.70;99.90;;;;;;5012649;28;20026;-64
2022/03/02 05:09:04;;;;;;;55.75;22.50;;;3.70;99.90;;;;;;5022530;28;20106;-63
2022/03/02 05:11:30;;;;;;;45.83;22.13;;;3.70;99.90;;;;;;5018200;28;20125;-63
2022/03/02 05:13:56;;;;;;;47.30;24.25;;;3.60;99.90;;;;;;5019631;28;21372;-65
2022/03/02 05:16:22;;;;;;;55.55;24.33;;;3.60;99.90;;;;;;5019326;28;20036;-64
2022/03/02 05:18:48;;;;;;;48.53;23.35;;;3.60;99.90;;;;;;5019838;28;20533;-65
2022/03/02 05:21:14;;;;;;;50.72;25.02;;;3.50;99.90;;;;;;5019601;28;20026;-64
2022/03/02 05:23:40;;;;;;;50.88;24.13;;;3.50;99.90;;;;;;5021900;28;20021;-64
2022/03/02 05:26:06;;;;;;;48.55;23.35;;;3.50;99.90;;;;;;5026184;28;20483;-64
2022/03/02 05:28:32;;;;;;;52.92;23.58;;;3.50;99.90;;;;;;5022217;28;20034;-64
2022/03/02 05:30:57;;;;;;;49.03;23.40;;;3.40;99.90;;;;;;5017015;28;20042;-65
2022/03/02 05:33:23;;;;;;;50.75;24.02;;;3.40;99.90;;;;;;5016388;28;20033;-65
2022/03/02 05:35:49;;;;;;;49.88;22.65;;;3.40;99.90;;;;;;5013242;28;20136;-65
2022/03/02 05:38:14;;;;;;;56.33;24.35;;;3.40;99.90;;;;;;5019423;28;20034;-65
2022/03/02 05:40:40;;;;;;;51.40;24.52;;;3.30;99.90;;;;;;5015283;28;20110;-65
2022/03/02 05:43:05;;;;;;;51.28;24.58;;;3.40;99.90;;;;;;5018036;28;20089;-64
2022/03/02 05:45:31;;;;;;;48.28;23.73;;;3.30;99.90;;;;;;5016314;28;20031;-65
2022/03/02 05:47:57;;;;;;;54.97;24.77;;;3.30;99.90;;;;;;5020162;28;20026;-65
2022/03/02 05:50:22;;;;;;;57.78;25.52;;;3.30;99.90;;;;;;5010271;28;20049;-64
2022/03/02 05:52:48;;;;;;;52.33;24.92;;;3.30;99.90;;;;;;5006649;28;20096;-65
2022/03/02 05:55:14;;;;;;;51.95;24.42;;;3.30;99.90;;;;;;5018579;28;20047;-65
2022/03/02 05:57:39;;;;;;;55.20;24.45;;;3.20;99.90;;;;;;5024407;28;20034;-65
2022/03/02 06:00:06;;;;;;;55.08;26.23;;;3.20;99.90;;;;;;5030914;28;20025;-65
2022/03/02 06:02:32;;;;;;;51.10;24.85;;;3.30;99.90;;;;;;5003756;28;20026;-63
2022/03/02 06:04:57;;;;;;;50.45;23.65;;;3.20;99.90;;;;;;5008869;28;20026;-64
2022/03/02 06:07:23;;;;;;;52.05;24.48;;;3.30;99.90;;;;;;5008947;28;20487;-65
2022/03/02 06:09:49;;;;;;;50.75;24.65;;;3.30;99.90;;;;;;5020108;28;20042;-64
2022/03/02 06:12:15;;;;;;;55.63;25.88;;;3.30;99.90;;;;;;5018769;28;20040;-65
2022/03/02 06:14:41;;;;;;;52.00;25.90;;;3.20;99.90;;;;;;5027412;28;20068;-64
2022/03/02 06:17:09;;;;;;;51.47;24.50;;;3.20;99.90;;;;;;5017205;28;20492;-65
2022/03/02 06:19:35;;;;;;;55.63;27.33;;;3.20;99.90;;;;;;5026216;28;20506;-64
2022/03/02 06:22:03;;;;;;;51.55;25.45;;;3.20;99.90;;;;;;5019542;28;20030;-67
2022/03/02 06:24:31;;;;;;;54.40;25.95;;;3.20;99.90;;;;;;5017384;28;20109;-62
2022/03/02 06:26:56;;;;;;;55.00;25.48;;;3.20;99.90;;;;;;5017321;28;20065;-65
2022/03/02 06:29:22;;;;;;;52.33;24.52;;;3.10;99.90;;;;;;5010067;28;20050;-66
2022/03/02 06:31:48;;;;;;;77.00;27.45;;;3.20;99.90;;;;;;5018220;28;20616;-65
2022/03/02 06:34:13;;;;;;;51.38;24.70;;;3.20;99.90;;;;;;5029581;28;20551;-65
2022/03/02 06:36:39;;;;;;;55.60;27.10;;;3.20;99.90;;;;;;5011465;28;20029;-65
2022/03/02 06:39:05;;;;;;;49.92;25.88;;;3.20;99.90;;;;;;5018163;28;20046;-65
2022/03/02 06:41:36;;;;;;;55.72;27.25;;;3.20;99.90;;;;;;5008958;28;20484;-66
2022/03/02 06:44:18;;;;;;;65.07;28.23;;;3.20;99.90;;;;;;5010425;28;20036;-66
2022/03/02 06:47:05;;;;;;;56.50;25.80;;;3.20;99.90;;;;;;5024595;28;20034;-67
2022/03/02 06:49:56;;;;;;;64.82;27.23;;;3.30;99.90;;;;;;5023698;28;20065;-67
2022/03/02 06:52:27;;;;;;;56.00;26.80;;;3.30;99.90;;;;;;5007131;28;20026;-66
2022/03/02 06:54:54;;;;;;;56.88;25.85;;;3.30;99.90;;;;;;5020277;28;20056;-66
2022/03/02 06:57:26;;;;;;;50.88;26.23;;;3.30;99.90;;;;;;5019998;28;20033;-64
2022/03/02 06:59:53;;;;;;;50.75;26.65;;;3.30;99.90;;;;;;5024108;28;20075;-60
2022/03/02 07:02:34;;;;;;;51.45;26.35;;;3.30;99.90;;;;;;5008126;28;20543;-62
2022/03/02 07:05:02;;;;;;;59.13;26.50;;;3.30;99.90;;;;;;5017660;28;20029;-63
2022/03/02 07:07:30;;;;;;;65.28;26.92;;;3.40;99.90;;;;;;5013710;28;20061;-63
2022/03/02 07:09:56;;;;;;;57.65;27.35;;;3.40;99.90;;;;;;5013448;28;20038;-64
2022/03/02 07:12:23;;;;;;;56.38;25.70;;;3.40;99.90;;;;;;5017455;28;20143;-62
2022/03/02 07:14:50;;;;;;;59.30;27.15;;;3.40;99.90;;;;;;5016409;28;20052;-64
2022/03/02 07:17:15;;;;;;;56.17;27.85;;;3.50;99.90;;;;;;5014868;28;20173;-64
2022/03/02 07:19:41;;;;;;;54.65;26.50;;;3.50;99.90;;;;;;5020895;28;20138;-63
2022/03/02 07:22:09;;;;;;;57.88;27.15;;;3.60;99.90;;;;;;5018819;28;20030;-63
2022/03/02 07:24:41;;;;;;;58.45;26.40;;;3.60;99.90;;;;;;5020637;28;20459;-64
2022/03/02 07:27:07;;;;;;;54.80;25.83;;;3.50;99.90;;;;;;5009641;28;20109;-63
2022/03/02 07:29:36;;;;;;;68.38;28.85;;;3.60;99.90;;;;;;5008459;28;20152;-63
2022/03/02 07:32:02;;;;;;;57.60;26.92;;;3.60;99.90;;;;;;5021199;28;20032;-62
2022/03/02 07:34:30;;;;;;;51.55;26.23;;;3.70;99.90;;;;;;5020948;28;20344;-63
2022/03/02 07:36:58;;;;;;;60.50;26.40;;;3.70;99.90;;;;;;5013309;28;20029;-65
2022/03/02 07:39:24;;;;;;;57.90;27.48;;;3.70;99.90;;;;;;5020940;28;20068;-61
2022/03/02 07:41:50;;;;;;;62.72;26.42;;;3.70;99.90;;;;;;5025116;28;20399;-57
2022/03/02 07:44:16;;;;;;;52.78;26.02;;;3.70;99.90;;;;;;5005034;28;20108;-56
2022/03/02 07:46:42;;;;;;;58.20;27.30;;;3.80;99.90;;;;;;5009480;28;20112;-59
2022/03/02 07:49:08;;;;;;;55.40;25.40;;;3.80;99.90;;;;;;5012625;28;20042;-57
2022/03/02 07:51:35;;;;;;;51.63;26.58;;;3.90;99.90;;;;;;5019850;28;20108;-59
2022/03/02 07:54:03;;;;;;;54.45;26.58;;;3.90;99.90;;;;;;5026996;28;20032;-59
2022/03/02 07:56:31;;;;;;;54.03;27.50;;;4.00;99.90;;;;;;5019868;28;20029;-58
2022/03/02 07:59:05;;;;;;;59.40;27.88;;;4.00;99.90;;;;;;5032510;28;20034;-54
2022/03/02 08:01:36;;;;;;;55.25;26.67;;;4.10;99.90;;;;;;5012958;28;20026;-56
2022/03/02 08:04:07;;;;;;;57.22;27.77;;;4.10;99.90;;;;;;5024724;28;20108;-59
2022/03/02 08:06:39;;;;;;;61.15;27.77;;;4.20;99.90;;;;;;5020952;28;20068;-59
2022/03/02 08:09:07;;;;;;;57.80;25.60;;;4.20;99.90;;;;;;5013560;28;20472;-54
2022/03/02 08:11:37;;;;;;;56.30;25.77;;;4.30;99.90;;;;;;5019780;28;20488;-57
2022/03/02 08:14:04;;;;;;;50.00;24.80;;;4.30;99.90;;;;;;4993800;28;20109;-55
2022/03/02 08:16:31;;;;;;;50.70;24.92;;;4.40;99.90;;;;;;5010098;28;20026;-57
2022/03/02 08:18:58;;;;;;;56.05;24.63;;;4.40;99.90;;;;;;5008376;28;20037;-61
2022/03/02 08:21:29;;;;;;;50.85;25.08;;;4.50;99.90;;;;;;5027027;28;20022;-57
2022/03/02 08:23:56;;;;;;;54.40;26.55;;;4.60;99.90;;;;;;5009071;28;20054;-55
2022/03/02 08:26:24;;;;;;;49.88;24.45;;;4.60;99.90;;;;;;5011479;28;20025;-54
2022/03/02 08:28:54;;;;;;;52.80;25.17;;;4.70;99.90;;;;;;5010864;28;20030;-54
2022/03/02 08:31:20;;;;;;;58.13;25.15;;;4.70;99.90;;;;;;5015643;28;20042;-52
2022/03/02 08:33:48;;;;;;;53.83;25.10;;;4.80;99.90;;;;;;5012307;28;20136;-56
2022/03/02 08:36:15;;;;;;;51.78;22.88;;;4.90;99.90;;;;;;5009222;28;20022;-60
2022/03/02 08:38:42;;;;;;;57.25;24.17;;;4.90;99.90;;;;;;5022013;28;20037;-57
2022/03/02 08:41:11;;;;;;;52.33;25.90;;;5.00;99.90;;;;;;5009247;28;20215;-58
2022/03/02 08:43:37;;;;;;;47.53;24.75;;;5.10;99.90;;;;;;5019789;28;20040;-58
2022/03/02 08:46:04;;;;;;;53.65;21.80;;;5.10;99.90;;;;;;5022258;28;20032;-60
2022/03/02 08:48:30;;;;;;;50.05;23.63;;;5.20;99.90;;;;;;5022778;28;20153;-61
2022/03/02 08:50:59;;;;;;;59.38;24.77;;;5.30;99.90;;;;;;5030200;28;20072;-59
2022/03/02 08:53:26;;;;;;;40.33;21.50;;;5.30;99.90;;;;;;5018952;28;20361;-58
2022/03/02 08:55:53;;;;;;;43.50;22.80;;;5.40;99.90;;;;;;5013402;28;20037;-59
2022/03/02 08:58:19;;;;;;;48.20;24.80;;;5.50;99.90;;;;;;5022122;28;20387;-57
2022/03/02 09:00:46;;;;;;;47.55;21.67;;;5.50;99.90;;;;;;5025971;28;20038;-57
2022/03/02 09:03:15;;;;;;;51.55;22.48;;;5.50;99.90;;;;;;5021774;28;20040;-55
2022/03/02 09:05:42;;;;;;;44.40;22.15;;;5.60;99.90;;;;;;5017786;28;20044;-58
2022/03/02 09:08:08;;;;;;;46.58;22.80;;;5.70;99.90;;;;;;5022471;28;20355;-55
2022/03/02 09:10:35;;;;;;;47.30;22.13;;;5.80;99.90;;;;;;5018955;28;20034;-56
2022/03/02 09:13:02;;;;;;;43.47;21.48;;;5.90;99.90;;;;;;5022313;28;20038;-56
2022/03/02 09:15:28;;;;;;;44.63;19.92;;;6.00;99.90;;;;;;5010243;28;20037;-54
2022/03/02 09:17:55;;;;;;;44.38;21.80;;;6.10;99.90;;;;;;5031100;28;20041;-60
2022/03/02 09:20:22;;;;;;;45.15;22.48;;;6.20;99.90;;;;;;5022463;28;20060;-61
2022/03/02 09:22:50;;;;;;;50.80;22.65;;;6.30;99.90;;;;;;5016803;28;21253;-60
2022/03/02 09:25:15;;;;;;;42.38;21.17;;;6.40;99.90;;;;;;5029116;28;20488;-55
2022/03/02 09:27:43;;;;;;;46.97;22.80;;;6.40;99.90;;;;;;5014928;28;20049;-60
2022/03/02 09:30:10;;;;;;;45.35;21.77;;;6.50;99.90;;;;;;5011316;28;20048;-55
2022/03/02 09:32:41;;;;;;;45.35;21.25;;;6.60;99.90;;;;;;5007728;28;20044;-59
2022/03/02 09:35:12;;;;;;;36.95;19.50;;;6.70;99.90;;;;;;5008044;28;20371;-57
2022/03/02 09:37:44;;;;;;;36.60;19.63;;;6.70;99.90;;;;;;5006461;28;20040;-57
2022/03/02 09:40:20;;;;;;;;;;;6.90;99.90;;;;;;5009593;28;20022;-56
2022/03/02 09:43:01;;;;;;;40.17;18.83;;;6.90;99.90;;;;;;5024265;28;19956;-55
2022/03/02 09:45:30;;;;;;;42.15;19.50;;;7.00;99.90;;;;;;5027101;28;20487;-58
2022/03/02 09:48:00;;;;;;;43.33;19.15;;;7.20;99.90;;;;;;5010688;28;20030;-59
2022/03/02 09:50:31;;;;;;;39.00;19.92;;;7.20;99.90;;;;;;5010760;28;20315;-58
2022/03/02 09:53:01;;;;;;;44.03;19.40;;;7.40;99.90;;;;;;5010659;28;20042;-55
2022/03/02 09:55:27;;;;;;;37.25;18.83;;;7.50;99.90;;;;;;5008477;28;20076;-56
2022/03/02 09:57:56;;;;;;;41.22;18.55;;;7.50;99.90;;;;;;5020176;28;20065;-55
2022/03/02 10:00:24;;;;;;;37.35;18.77;;;7.50;99.90;;;;;;5026617;28;20034;-56
2022/03/02 10:02:52;;;;;;;37.22;18.45;;;7.60;99.90;;;;;;5020379;28;20095;-56
2022/03/02 10:05:30;;;;;;;39.60;18.00;;;7.80;99.90;;;;;;5016106;28;20014;-59
2022/03/02 10:08:04;;;;;;;38.90;19.67;;;8.00;99.90;;;;;;5029338;28;20455;-55
2022/03/02 10:10:36;;;;;;;36.25;18.80;;;8.00;99.90;;;;;;5017526;28;20030;-58
2022/03/02 10:13:08;;;;;;;38.17;18.73;;;8.10;99.70;;;;;;4993165;28;20036;-62
2022/03/02 10:15:35;;;;;;;41.53;18.63;;;8.00;99.00;;;;;;5009076;28;20120;-52
2022/03/02 10:18:02;;;;;;;33.38;17.20;;;8.20;98.90;;;;;;5029761;28;20069;-55
2022/03/02 10:20:30;;;;;;;33.53;17.48;;;8.10;99.40;;;;;;5012742;28;20030;-51
2022/03/02 10:23:02;;;;;;;33.75;17.92;;;8.40;96.30;;;;;;5018227;28;20384;-57
2022/03/02 10:25:46;;;;;;;40.00;18.52;;;8.40;96.50;;;;;;5009114;28;20110;-49
2022/03/02 10:28:21;;;;;;;32.15;17.10;;;8.20;96.70;;;;;;5010243;28;20025;-63
2022/03/02 10:31:11;;;;;;;32.78;16.60;;;8.50;94.80;;;;;;5009007;28;20081;-62
2022/03/02 10:33:38;;;;;;;33.92;16.58;;;8.60;95.80;;;;;;5007710;28;20383;-64
2022/03/02 10:36:08;;;;;;;34.45;17.63;;;8.80;92.40;;;;;;5012394;28;20033;-63
2022/03/02 10:38:39;;;;;;;37.85;17.23;;;8.70;93.90;;;;;;5013721;28;20040;-63
2022/03/02 10:41:08;;;;;;;34.13;16.52;;;8.80;92.70;;;;;;5017114;28;20018;-63
2022/03/02 10:43:48;;;;;;;32.38;15.98;;;8.90;92.10;;;;;;5011898;28;20068;-63
2022/03/02 10:46:19;;;;;;;33.15;16.98;;;9.00;90.60;;;;;;5011829;28;20055;-63
2022/03/02 10:48:48;;;;;;;36.92;17.35;;;9.30;89.20;;;;;;5005668;28;20105;-63
2022/03/02 10:51:15;;;;;;;36.03;16.05;;;9.30;87.20;;;;;;5013900;28;20032;-63
2022/03/02 10:53:41;;;;;;;30.30;16.67;;;9.20;86.40;;;;;;5017841;28;20030;-64
2022/03/02 10:56:09;;;;;;;33.10;18.08;;;9.30;89.40;;;;;;5011562;28;20492;-63
2022/03/02 10:58:36;;;;;;;32.95;16.38;;;9.40;89.50;;;;;;5021447;28;20041;-64
2022/03/02 11:01:03;;;;;;;30.42;15.55;;;9.70;85.60;;;;;;5028711;28;20057;-63
2022/03/02 11:03:35;;;;;;;30.88;15.85;;;9.70;89.00;;;;;;5006533;28;20101;-64
2022/03/02 11:06:03;;;;;;;34.67;17.08;;;9.70;85.90;;;;;;5016247;28;20468;-63
2022/03/02 11:08:29;;;;;;;28.45;15.20;;;9.90;83.30;;;;;;5024247;28;20033;-64
2022/03/02 11:10:56;;;;;;;35.13;16.75;;;9.90;82.70;;;;;;5008887;28;20030;-60
2022/03/02 11:13:23;;;;;;;28.60;16.17;;;10.30;75.20;;;;;;5015424;28;20458;-62
2022/03/02 11:15:51;;;;;;;33.10;17.45;;;10.30;73.30;;;;;;5003010;28;20131;-65
2022/03/02 11:18:19;;;;;;;39.40;17.80;;;10.50;72.80;;;;;;5008380;28;20026;-62
2022/03/02 11:21:13;;;;;;;37.35;18.60;;;10.40;71.90;;;;;;5008704;28;20026;-62
2022/03/02 11:23:43;;;;;;;36.40;18.23;;;10.40;75.00;;;;;;5008305;28;20499;-65
2022/03/02 11:26:14;;;;;;;35.80;18.92;;;10.40;73.70;;;;;;5009117;28;20466;-64
2022/03/02 11:28:46;;;;;;;39.30;19.55;;;10.40;76.30;;;;;;4998707;28;20215;-62
2022/03/02 11:31:16;;;;;;;35.83;19.25;;;10.40;75.10;;;;;;4990103;28;20109;-63
2022/03/02 11:33:42;;;;;;;41.30;19.50;;;10.50;75.00;;;;;;4989234;28;20031;-61
2022/03/02 11:36:17;;;;;;;44.15;20.73;;;10.60;75.30;;;;;;4989122;28;20476;-61
2022/03/02 11:38:45;;;;;;;37.25;20.13;;;10.60;73.90;;;;;;4989654;28;20101;-63
2022/03/02 11:41:13;;;;;;;40.00;20.48;;;10.60;74.40;;;;;;4990036;28;20022;-64
2022/03/02 11:43:39;;;;;;;37.05;20.02;;;10.90;73.20;;;;;;4989688;28;20117;-63
2022/03/02 11:46:07;;;;;;;39.17;20.55;;;11.10;68.90;;;;;;5008452;28;20034;-63
2022/03/02 11:48:42;;;;;;;35.50;19.10;;;11.00;70.30;;;;;;5009226;28;20176;-62
2022/03/02 11:51:17;;;;;;;37.92;19.20;;;11.00;69.70;;;;;;5009125;28;20034;-60
2022/03/02 11:53:55;;;;;;;37.42;18.60;;;11.20;68.20;;;;;;5008861;28;20609;-65
2022/03/02 11:56:23;;;;;;;36.97;18.85;;;11.20;69.70;;;;;;5008550;28;20041;-64
2022/03/02 11:58:52;;;;;;;33.00;18.45;;;11.40;67.60;;;;;;5004577;28;20041;-65
2022/03/02 12:01:17;;;;;;;33.65;18.52;;;11.80;62.50;;;;;;5008894;28;20080;-65
2022/03/02 12:04:01;;;;;;;34.05;18.20;;;12.00;62.80;;;;;;5009348;28;20542;-65
2022/03/02 12:06:29;;;;;;;35.13;18.38;;;12.70;58.40;;;;;;5008026;28;20496;-65
2022/03/02 12:08:57;;;;;;;32.10;18.60;;;13.40;56.40;;;;;;5009059;28;20045;-62
2022/03/02 12:11:34;;;;;;;29.38;17.55;;;14.30;55.30;;;;;;5008733;28;20041;-64
2022/03/02 12:14:04;;;;;;;29.08;17.52;;;14.90;51.70;;;;;;5002674;28;20480;-63
2022/03/02 12:16:46;;;;;;;29.80;17.20;;;15.60;49.30;;;;;;5007503;28;20037;-65
2022/03/02 12:19:20;;;;;;;29.35;17.38;;;16.40;48.80;;;;;;4989403;28;20058;-64
2022/03/02 12:21:46;;;;;;;31.60;17.60;;;16.80;46.10;;;;;;5005133;28;20110;-64
2022/03/02 12:24:12;;;;;;;31.08;17.65;;;17.10;46.00;;;;;;5006989;28;20104;-63
2022/03/02 12:26:46;;;;;;;30.90;17.95;;;17.20;44.60;;;;;;4988255;28;20035;-63
2022/03/02 12:29:12;;;;;;;28.80;17.05;;;17.40;43.70;;;;;;5000016;28;20026;-63
2022/03/02 12:31:37;;;;;;;25.92;16.65;;;17.60;42.80;;;;;;5008748;28;20080;-61
2022/03/02 12:34:14;;;;;;;26.73;17.50;;;17.70;42.40;;;;;;5011538;28;20030;-63
2022/03/02 12:36:41;;;;;;;27.45;17.25;;;17.60;42.40;;;;;;5011235;28;20168;-64
2022/03/02 12:39:06;;;;;;;26.88;17.15;;;17.80;42.60;;;;;;5011413;28;20038;-63